sensor_id;sensor_type;location;lat;lon;timestamp;P1;durP1;ratioP1;P2;durP2;ratioP2
5175;SDS011;2607;50.934;6.934;2022-07-24T00:00:40;16.67;;;14.37;;
5175;SDS011;2607;50.934;6.934;2022-07-24T00:03:06;9.57;;;8.60;;
5175;SDS011;2607;50.934;6.934;2022-07-24T00:05:32;8.90;;;7.70;;
5175;SDS011;2607;50.934;6.934;2022-07-24T00:07:57;8.27;;;7.40;;
5175;SDS011;2607;50.934;6.934;2022-07-24T00:10:23;7.97;;;7.20;;
5175;SDS011;2607;50.934;6.934;2022-07-24T00:12:49;10.00;;;7.83;;
5175;SDS011;2607;50.934;6.934;2022-07-24T00:15:14;8.03;;;7.23;;
5175;SDS011;2607;50.934;6.934;2022-07-24T00:17:41;9.17;;;7.73;;
5175;SDS011;2607;50.934;6.934;2022-07-24T00:20:07;7.63;;;7.00;;
5175;SDS011;2607;50.934;6.934;2022-07-24T00:22:33;10.63;;;7.40;;
5175;SDS011;2607;50.934;6.934;2022-07-24T00:24:59;8.33;;;7.30;;
5175;SDS011;2607;50.934;6.934;2022-07-24T00:27:25;7.73;;;7.00;;
5175;SDS011;2607;50.934;6.934;2022-07-24T00:29:51;7.27;;;6.47;;
5175;SDS011;2607;50.934;6.934;2022-07-24T00:32:16;8.23;;;7.63;;
5175;SDS011;2607;50.934;6.934;2022-07-24T00:34:42;8.57;;;7.73;;
5175;SDS011;2607;50.934;6.934;2022-07-24T00:37:08;8.17;;;7.40;;
5175;SDS011;2607;50.934;6.934;2022-07-24T00:39:33;8.00;;;7.40;;
5175;SDS011;2607;50.934;6.934;2022-07-24T00:41:59;7.80;;;7.10;;
5175;SDS011;2607;50.934;6.934;2022-07-24T00:44:24;9.20;;;8.43;;
5175;SDS011;2607;50.934;6.934;2022-07-24T00:46:50;8.27;;;7.47;;
5175;SDS011;2607;50.934;6.934;2022-07-24T00:49:16;7.80;;;7.20;;
5175;SDS011;2607;50.934;6.934;2022-07-24T00:51:45;8.00;;;7.30;;
5175;SDS011;2607;50.934;6.934;2022-07-24T00:54:13;13.10;;;8.30;;
5175;SDS011;2607;50.934;6.934;2022-07-24T00:56:40;11.50;;;8.67;;
5175;SDS011;2607;50.934;6.934;2022-07-24T00:59:07;8.83;;;8.00;;
5175;SDS011;2607;50.934;6.934;2022-07-24T01:01:33;9.43;;;8.37;;
5175;SDS011;2607;50.934;6.934;2022-07-24T01:03:58;10.70;;;8.00;;
5175;SDS011;2607;50.934;6.934;2022-07-24T01:06:24;10.13;;;8.00;;
5175;SDS011;2607;50.934;6.934;2022-07-24T01:08:50;8.57;;;7.80;;
5175;SDS011;2607;50.934;6.934;2022-07-24T01:11:17;7.73;;;7.10;;
5175;SDS011;2607;50.934;6.934;2022-07-24T01:13:43;7.23;;;6.70;;
5175;SDS011;2607;50.934;6.934;2022-07-24T01:16:09;8.37;;;7.67;;
5175;SDS011;2607;50.934;6.934;2022-07-24T01:18:35;9.93;;;7.40;;
5175;SDS011;2607;50.934;6.934;2022-07-24T01:21:01;8.40;;;7.70;;
5175;SDS011;2607;50.934;6.934;2022-07-24T01:23:28;8.30;;;7.60;;
5175;SDS011;2607;50.934;6.934;2022-07-24T01:25:53;8.10;;;7.10;;
5175;SDS011;2607;50.934;6.934;2022-07-24T01:28:19;8.57;;;7.87;;
5175;SDS011;2607;50.934;6.934;2022-07-24T01:30:44;8.00;;;7.40;;
5175;SDS011;2607;50.934;6.934;2022-07-24T01:33:10;13.23;;;8.40;;
5175;SDS011;2607;50.934;6.934;2022-07-24T01:35:36;8.50;;;7.80;;
5175;SDS011;2607;50.934;6.934;2022-07-24T01:38:02;9.37;;;8.33;;
5175;SDS011;2607;50.934;6.934;2022-07-24T01:40:28;8.53;;;7.83;;
5175;SDS011;2607;50.934;6.934;2022-07-24T01:42:54;9.13;;;8.23;;
5175;SDS011;2607;50.934;6.934;2022-07-24T01:45:20;8.83;;;7.97;;
5175;SDS011;2607;50.934;6.934;2022-07-24T01:47:45;8.73;;;7.90;;
5175;SDS011;2607;50.934;6.934;2022-07-24T01:50:11;7.97;;;7.23;;
5175;SDS011;2607;50.934;6.934;2022-07-24T01:52:38;10.67;;;9.07;;
5175;SDS011;2607;50.934;6.934;2022-07-24T01:55:04;9.50;;;8.50;;
5175;SDS011;2607;50.934;6.934;2022-07-24T01:57:31;8.90;;;8.00;;
5175;SDS011;2607;50.934;6.934;2022-07-24T01:59:57;8.80;;;7.93;;
5175;SDS011;2607;50.934;6.934;2022-07-24T02:02:24;8.63;;;7.90;;
5175;SDS011;2607;50.934;6.934;2022-07-24T02:04:50;9.07;;;7.50;;
5175;SDS011;2607;50.934;6.934;2022-07-24T02:07:15;8.27;;;7.47;;
5175;SDS011;2607;50.934;6.934;2022-07-24T02:09:41;8.97;;;8.17;;
5175;SDS011;2607;50.934;6.934;2022-07-24T02:12:07;9.93;;;7.67;;
5175;SDS011;2607;50.934;6.934;2022-07-24T02:14:32;10.83;;;7.20;;
5175;SDS011;2607;50.934;6.934;2022-07-24T02:16:58;9.10;;;7.90;;
5175;SDS011;2607;50.934;6.934;2022-07-24T02:19:24;8.73;;;7.77;;
5175;SDS011;2607;50.934;6.934;2022-07-24T02:21:50;8.87;;;7.70;;
5175;SDS011;2607;50.934;6.934;2022-07-24T02:24:15;7.83;;;7.13;;
5175;SDS011;2607;50.934;6.934;2022-07-24T02:26:41;9.17;;;7.40;;
5175;SDS011;2607;50.934;6.934;2022-07-24T02:29:06;7.30;;;6.67;;
5175;SDS011;2607;50.934;6.934;2022-07-24T02:31:32;9.10;;;7.00;;
5175;SDS011;2607;50.934;6.934;2022-07-24T02:33:57;7.87;;;7.07;;
5175;SDS011;2607;50.934;6.934;2022-07-24T02:36:23;7.53;;;6.93;;
5175;SDS011;2607;50.934;6.934;2022-07-24T02:38:49;7.50;;;6.70;;
5175;SDS011;2607;50.934;6.934;2022-07-24T02:41:15;7.13;;;6.63;;
5175;SDS011;2607;50.934;6.934;2022-07-24T02:43:40;12.37;;;7.13;;
5175;SDS011;2607;50.934;6.934;2022-07-24T02:46:06;8.50;;;7.80;;
5175;SDS011;2607;50.934;6.934;2022-07-24T02:48:31;7.93;;;7.40;;
5175;SDS011;2607;50.934;6.934;2022-07-24T02:50:58;8.53;;;7.83;;
5175;SDS011;2607;50.934;6.934;2022-07-24T02:53:24;8.33;;;7.10;;
5175;SDS011;2607;50.934;6.934;2022-07-24T02:55:50;8.53;;;7.83;;
5175;SDS011;2607;50.934;6.934;2022-07-24T02:58:15;8.87;;;8.07;;
5175;SDS011;2607;50.934;6.934;2022-07-24T03:00:41;8.70;;;7.00;;
5175;SDS011;2607;50.934;6.934;2022-07-24T03:03:06;8.47;;;7.67;;
5175;SDS011;2607;50.934;6.934;2022-07-24T03:05:32;7.83;;;7.10;;
5175;SDS011;2607;50.934;6.934;2022-07-24T03:07:58;7.57;;;7.00;;
5175;SDS011;2607;50.934;6.934;2022-07-24T03:10:23;8.23;;;7.30;;
5175;SDS011;2607;50.934;6.934;2022-07-24T03:12:49;8.90;;;7.50;;
5175;SDS011;2607;50.934;6.934;2022-07-24T03:15:15;7.97;;;7.30;;
5175;SDS011;2607;50.934;6.934;2022-07-24T03:17:47;8.60;;;7.80;;
5175;SDS011;2607;50.934;6.934;2022-07-24T03:20:19;7.13;;;6.53;;
5175;SDS011;2607;50.934;6.934;2022-07-24T03:22:46;8.10;;;7.30;;
5175;SDS011;2607;50.934;6.934;2022-07-24T03:25:12;7.73;;;7.13;;
5175;SDS011;2607;50.934;6.934;2022-07-24T03:27:38;8.23;;;7.40;;
5175;SDS011;2607;50.934;6.934;2022-07-24T03:30:04;8.97;;;8.17;;
5175;SDS011;2607;50.934;6.934;2022-07-24T03:32:30;8.40;;;7.60;;
5175;SDS011;2607;50.934;6.934;2022-07-24T03:34:56;8.73;;;7.80;;
5175;SDS011;2607;50.934;6.934;2022-07-24T03:37:21;9.67;;;7.90;;
5175;SDS011;2607;50.934;6.934;2022-07-24T03:39:47;9.93;;;8.00;;
5175;SDS011;2607;50.934;6.934;2022-07-24T03:42:13;8.73;;;7.80;;
5175;SDS011;2607;50.934;6.934;2022-07-24T03:44:38;8.80;;;8.07;;
5175;SDS011;2607;50.934;6.934;2022-07-24T03:47:04;8.43;;;7.00;;
5175;SDS011;2607;50.934;6.934;2022-07-24T03:49:30;7.97;;;7.33;;
5175;SDS011;2607;50.934;6.934;2022-07-24T03:51:55;8.20;;;7.47;;
5175;SDS011;2607;50.934;6.934;2022-07-24T03:54:21;9.07;;;6.93;;
5175;SDS011;2607;50.934;6.934;2022-07-24T03:56:47;8.93;;;7.53;;
5175;SDS011;2607;50.934;6.934;2022-07-24T03:59:13;8.20;;;7.40;;
5175;SDS011;2607;50.934;6.934;2022-07-24T04:01:38;8.30;;;7.60;;
5175;SDS011;2607;50.934;6.934;2022-07-24T04:04:04;8.53;;;7.67;;
5175;SDS011;2607;50.934;6.934;2022-07-24T04:06:30;8.13;;;7.33;;
5175;SDS011;2607;50.934;6.934;2022-07-24T04:08:57;8.23;;;7.60;;
5175;SDS011;2607;50.934;6.934;2022-07-24T04:11:23;8.03;;;7.30;;
5175;SDS011;2607;50.934;6.934;2022-07-24T04:13:49;8.70;;;7.90;;
5175;SDS011;2607;50.934;6.934;2022-07-24T04:16:15;7.70;;;7.10;;
5175;SDS011;2607;50.934;6.934;2022-07-24T04:18:41;9.23;;;8.53;;
5175;SDS011;2607;50.934;6.934;2022-07-24T04:21:06;8.23;;;7.53;;
5175;SDS011;2607;50.934;6.934;2022-07-24T04:23:32;11.90;;;7.23;;
5175;SDS011;2607;50.934;6.934;2022-07-24T04:25:58;8.17;;;7.47;;
5175;SDS011;2607;50.934;6.934;2022-07-24T04:28:23;8.80;;;7.97;;
5175;SDS011;2607;50.934;6.934;2022-07-24T04:30:49;7.80;;;7.07;;
5175;SDS011;2607;50.934;6.934;2022-07-24T04:33:15;10.10;;;7.80;;
5175;SDS011;2607;50.934;6.934;2022-07-24T04:35:41;8.23;;;7.50;;
5175;SDS011;2607;50.934;6.934;2022-07-24T04:38:06;7.33;;;6.80;;
5175;SDS011;2607;50.934;6.934;2022-07-24T04:40:32;8.33;;;7.50;;
5175;SDS011;2607;50.934;6.934;2022-07-24T04:42:57;7.53;;;7.03;;
5175;SDS011;2607;50.934;6.934;2022-07-24T04:45:23;17.43;;;8.40;;
5175;SDS011;2607;50.934;6.934;2022-07-24T04:47:48;8.57;;;7.77;;
5175;SDS011;2607;50.934;6.934;2022-07-24T04:50:14;7.73;;;7.13;;
5175;SDS011;2607;50.934;6.934;2022-07-24T04:52:40;8.37;;;7.67;;
5175;SDS011;2607;50.934;6.934;2022-07-24T04:55:07;7.80;;;7.10;;
5175;SDS011;2607;50.934;6.934;2022-07-24T04:57:33;8.17;;;7.40;;
5175;SDS011;2607;50.934;6.934;2022-07-24T04:59:59;10.50;;;6.70;;
5175;SDS011;2607;50.934;6.934;2022-07-24T05:02:24;8.00;;;7.20;;
5175;SDS011;2607;50.934;6.934;2022-07-24T05:04:50;7.93;;;7.33;;
5175;SDS011;2607;50.934;6.934;2022-07-24T05:07:16;7.60;;;7.00;;
5175;SDS011;2607;50.934;6.934;2022-07-24T05:09:42;8.30;;;7.67;;
5175;SDS011;2607;50.934;6.934;2022-07-24T05:12:07;8.00;;;7.30;;
5175;SDS011;2607;50.934;6.934;2022-07-24T05:14:33;11.23;;;8.57;;
5175;SDS011;2607;50.934;6.934;2022-07-24T05:16:59;7.60;;;7.00;;
5175;SDS011;2607;50.934;6.934;2022-07-24T05:19:24;6.97;;;6.33;;
5175;SDS011;2607;50.934;6.934;2022-07-24T05:21:50;7.30;;;6.60;;
5175;SDS011;2607;50.934;6.934;2022-07-24T05:24:15;7.07;;;6.57;;
5175;SDS011;2607;50.934;6.934;2022-07-24T05:26:41;7.23;;;6.73;;
5175;SDS011;2607;50.934;6.934;2022-07-24T05:29:07;7.90;;;7.10;;
5175;SDS011;2607;50.934;6.934;2022-07-24T05:31:32;8.20;;;7.60;;
5175;SDS011;2607;50.934;6.934;2022-07-24T05:33:58;7.10;;;6.60;;
5175;SDS011;2607;50.934;6.934;2022-07-24T05:36:27;6.93;;;6.43;;
5175;SDS011;2607;50.934;6.934;2022-07-24T05:38:53;8.77;;;7.07;;
5175;SDS011;2607;50.934;6.934;2022-07-24T05:41:18;7.37;;;6.87;;
5175;SDS011;2607;50.934;6.934;2022-07-24T05:43:44;7.77;;;7.10;;
5175;SDS011;2607;50.934;6.934;2022-07-24T05:46:10;7.17;;;6.57;;
5175;SDS011;2607;50.934;6.934;2022-07-24T05:48:35;7.17;;;6.50;;
5175;SDS011;2607;50.934;6.934;2022-07-24T05:51:01;7.60;;;7.00;;
5175;SDS011;2607;50.934;6.934;2022-07-24T05:53:27;7.53;;;6.93;;
5175;SDS011;2607;50.934;6.934;2022-07-24T05:55:52;7.27;;;6.77;;
5175;SDS011;2607;50.934;6.934;2022-07-24T05:58:18;6.87;;;6.27;;
5175;SDS011;2607;50.934;6.934;2022-07-24T06:00:44;7.40;;;6.63;;
5175;SDS011;2607;50.934;6.934;2022-07-24T06:03:10;7.60;;;6.90;;
5175;SDS011;2607;50.934;6.934;2022-07-24T06:05:36;7.07;;;6.50;;
5175;SDS011;2607;50.934;6.934;2022-07-24T06:08:02;7.30;;;6.43;;
5175;SDS011;2607;50.934;6.934;2022-07-24T06:10:28;6.80;;;6.10;;
5175;SDS011;2607;50.934;6.934;2022-07-24T06:12:53;6.97;;;6.37;;
5175;SDS011;2607;50.934;6.934;2022-07-24T06:15:19;7.83;;;6.90;;
5175;SDS011;2607;50.934;6.934;2022-07-24T06:17:45;5.90;;;5.50;;
5175;SDS011;2607;50.934;6.934;2022-07-24T06:20:11;8.33;;;7.63;;
5175;SDS011;2607;50.934;6.934;2022-07-24T06:22:37;6.37;;;5.80;;
5175;SDS011;2607;50.934;6.934;2022-07-24T06:25:06;7.63;;;7.00;;
5175;SDS011;2607;50.934;6.934;2022-07-24T06:27:32;7.77;;;5.90;;
5175;SDS011;2607;50.934;6.934;2022-07-24T06:29:58;7.20;;;6.60;;
5175;SDS011;2607;50.934;6.934;2022-07-24T06:32:24;6.83;;;6.30;;
5175;SDS011;2607;50.934;6.934;2022-07-24T06:34:50;7.73;;;7.00;;
5175;SDS011;2607;50.934;6.934;2022-07-24T06:37:15;6.50;;;6.10;;
5175;SDS011;2607;50.934;6.934;2022-07-24T06:39:41;6.90;;;6.37;;
5175;SDS011;2607;50.934;6.934;2022-07-24T06:42:06;7.03;;;6.30;;
5175;SDS011;2607;50.934;6.934;2022-07-24T06:44:32;7.30;;;6.80;;
5175;SDS011;2607;50.934;6.934;2022-07-24T06:46:59;7.50;;;6.03;;
5175;SDS011;2607;50.934;6.934;2022-07-24T06:49:24;7.60;;;6.07;;
5175;SDS011;2607;50.934;6.934;2022-07-24T06:51:50;7.30;;;6.70;;
5175;SDS011;2607;50.934;6.934;2022-07-24T06:54:15;6.13;;;5.73;;
5175;SDS011;2607;50.934;6.934;2022-07-24T06:56:41;6.13;;;5.63;;
5175;SDS011;2607;50.934;6.934;2022-07-24T06:59:07;6.53;;;6.03;;
5175;SDS011;2607;50.934;6.934;2022-07-24T07:01:33;6.93;;;6.30;;
5175;SDS011;2607;50.934;6.934;2022-07-24T07:03:58;7.50;;;6.90;;
5175;SDS011;2607;50.934;6.934;2022-07-24T07:06:24;6.70;;;6.10;;
5175;SDS011;2607;50.934;6.934;2022-07-24T07:08:49;6.40;;;5.87;;
5175;SDS011;2607;50.934;6.934;2022-07-24T07:11:15;6.50;;;6.00;;
5175;SDS011;2607;50.934;6.934;2022-07-24T07:13:40;8.90;;;6.70;;
5175;SDS011;2607;50.934;6.934;2022-07-24T07:16:06;6.67;;;5.97;;
5175;SDS011;2607;50.934;6.934;2022-07-24T07:18:32;6.60;;;6.03;;
5175;SDS011;2607;50.934;6.934;2022-07-24T07:20:57;7.97;;;7.30;;
5175;SDS011;2607;50.934;6.934;2022-07-24T07:23:23;7.93;;;7.20;;
5175;SDS011;2607;50.934;6.934;2022-07-24T07:25:51;8.03;;;7.33;;
5175;SDS011;2607;50.934;6.934;2022-07-24T07:28:17;6.90;;;6.17;;
5175;SDS011;2607;50.934;6.934;2022-07-24T07:30:42;6.60;;;6.00;;
5175;SDS011;2607;50.934;6.934;2022-07-24T07:33:08;6.10;;;5.70;;
5175;SDS011;2607;50.934;6.934;2022-07-24T07:35:33;6.87;;;6.37;;
5175;SDS011;2607;50.934;6.934;2022-07-24T07:37:59;7.27;;;6.67;;
5175;SDS011;2607;50.934;6.934;2022-07-24T07:40:25;6.13;;;5.70;;
5175;SDS011;2607;50.934;6.934;2022-07-24T07:42:50;7.37;;;6.87;;
5175;SDS011;2607;50.934;6.934;2022-07-24T07:45:16;6.70;;;6.20;;
5175;SDS011;2607;50.934;6.934;2022-07-24T07:47:41;6.90;;;6.30;;
5175;SDS011;2607;50.934;6.934;2022-07-24T07:50:07;7.43;;;6.17;;
5175;SDS011;2607;50.934;6.934;2022-07-24T07:52:33;7.37;;;6.87;;
5175;SDS011;2607;50.934;6.934;2022-07-24T07:54:59;9.87;;;7.70;;
5175;SDS011;2607;50.934;6.934;2022-07-24T07:57:24;18.07;;;13.10;;
5175;SDS011;2607;50.934;6.934;2022-07-24T07:59:50;11.97;;;9.33;;
5175;SDS011;2607;50.934;6.934;2022-07-24T08:02:15;10.00;;;9.00;;
5175;SDS011;2607;50.934;6.934;2022-07-24T08:04:41;11.00;;;9.10;;
5175;SDS011;2607;50.934;6.934;2022-07-24T08:07:07;11.20;;;9.90;;
5175;SDS011;2607;50.934;6.934;2022-07-24T08:09:32;8.37;;;7.67;;
5175;SDS011;2607;50.934;6.934;2022-07-24T08:11:58;8.70;;;7.90;;
5175;SDS011;2607;50.934;6.934;2022-07-24T08:14:23;10.70;;;6.93;;
5175;SDS011;2607;50.934;6.934;2022-07-24T08:16:49;8.93;;;6.20;;
5175;SDS011;2607;50.934;6.934;2022-07-24T08:19:15;8.90;;;6.03;;
5175;SDS011;2607;50.934;6.934;2022-07-24T08:21:40;7.00;;;6.27;;
5175;SDS011;2607;50.934;6.934;2022-07-24T08:24:06;6.73;;;6.33;;
5175;SDS011;2607;50.934;6.934;2022-07-24T08:26:32;6.43;;;5.93;;
5175;SDS011;2607;50.934;6.934;2022-07-24T08:28:58;6.67;;;6.27;;
5175;SDS011;2607;50.934;6.934;2022-07-24T08:31:27;6.20;;;5.80;;
5175;SDS011;2607;50.934;6.934;2022-07-24T08:33:52;7.53;;;5.60;;
5175;SDS011;2607;50.934;6.934;2022-07-24T08:36:18;6.47;;;5.97;;
5175;SDS011;2607;50.934;6.934;2022-07-24T08:38:44;8.13;;;6.40;;
5175;SDS011;2607;50.934;6.934;2022-07-24T08:41:09;8.53;;;6.57;;
5175;SDS011;2607;50.934;6.934;2022-07-24T08:43:35;12.17;;;6.77;;
5175;SDS011;2607;50.934;6.934;2022-07-24T08:46:02;24.40;;;21.50;;
5175;SDS011;2607;50.934;6.934;2022-07-24T08:48:28;23.97;;;17.77;;
5175;SDS011;2607;50.934;6.934;2022-07-24T08:50:54;7.43;;;6.73;;
5175;SDS011;2607;50.934;6.934;2022-07-24T08:53:22;11.40;;;8.50;;
5175;SDS011;2607;50.934;6.934;2022-07-24T08:55:49;13.63;;;11.73;;
5175;SDS011;2607;50.934;6.934;2022-07-24T08:58:15;8.83;;;7.97;;
5175;SDS011;2607;50.934;6.934;2022-07-24T09:00:40;7.60;;;6.70;;
5175;SDS011;2607;50.934;6.934;2022-07-24T09:03:06;7.83;;;7.10;;
5175;SDS011;2607;50.934;6.934;2022-07-24T09:05:32;6.37;;;5.77;;
5175;SDS011;2607;50.934;6.934;2022-07-24T09:08:12;9.67;;;6.70;;
5175;SDS011;2607;50.934;6.934;2022-07-24T09:10:39;7.23;;;6.63;;
5175;SDS011;2607;50.934;6.934;2022-07-24T09:13:12;9.83;;;7.60;;
5175;SDS011;2607;50.934;6.934;2022-07-24T09:15:46;6.23;;;5.73;;
5175;SDS011;2607;50.934;6.934;2022-07-24T09:18:30;7.30;;;6.67;;
5175;SDS011;2607;50.934;6.934;2022-07-24T09:20:58;8.10;;;7.30;;
5175;SDS011;2607;50.934;6.934;2022-07-24T09:23:39;6.67;;;6.10;;
5175;SDS011;2607;50.934;6.934;2022-07-24T09:26:05;7.57;;;6.87;;
5175;SDS011;2607;50.934;6.934;2022-07-24T09:28:45;247.60;;;177.43;;
5175;SDS011;2607;50.934;6.934;2022-07-24T09:31:16;26.00;;;19.83;;
5175;SDS011;2607;50.934;6.934;2022-07-24T09:33:41;15.07;;;12.77;;
5175;SDS011;2607;50.934;6.934;2022-07-24T09:36:11;7.03;;;6.30;;
5175;SDS011;2607;50.934;6.934;2022-07-24T09:38:39;7.43;;;6.03;;
5175;SDS011;2607;50.934;6.934;2022-07-24T09:41:12;6.80;;;6.20;;
5175;SDS011;2607;50.934;6.934;2022-07-24T09:43:43;6.80;;;6.40;;
5175;SDS011;2607;50.934;6.934;2022-07-24T09:46:09;5.90;;;5.40;;
5175;SDS011;2607;50.934;6.934;2022-07-24T09:51:09;34.93;;;26.57;;
5175;SDS011;2607;50.934;6.934;2022-07-24T09:53:35;11.87;;;10.63;;
5175;SDS011;2607;50.934;6.934;2022-07-24T09:56:03;40.57;;;30.57;;
5175;SDS011;2607;50.934;6.934;2022-07-24T09:58:31;7.23;;;6.57;;
5175;SDS011;2607;50.934;6.934;2022-07-24T10:01:02;9.27;;;6.07;;
5175;SDS011;2607;50.934;6.934;2022-07-24T10:03:32;5.20;;;4.90;;
5175;SDS011;2607;50.934;6.934;2022-07-24T10:06:03;8.80;;;5.37;;
5175;SDS011;2607;50.934;6.934;2022-07-24T10:08:32;5.80;;;5.30;;
5175;SDS011;2607;50.934;6.934;2022-07-24T10:10:59;9.67;;;7.30;;
5175;SDS011;2607;50.934;6.934;2022-07-24T10:13:26;92.87;;;68.13;;
5175;SDS011;2607;50.934;6.934;2022-07-24T10:18:21;35.33;;;27.60;;
5175;SDS011;2607;50.934;6.934;2022-07-24T10:20:58;12.63;;;11.43;;
5175;SDS011;2607;50.934;6.934;2022-07-24T10:23:42;13.57;;;12.20;;
5175;SDS011;2607;50.934;6.934;2022-07-24T10:29:11;8.07;;;6.80;;
5175;SDS011;2607;50.934;6.934;2022-07-24T10:31:42;8.37;;;5.70;;
5175;SDS011;2607;50.934;6.934;2022-07-24T10:34:20;5.80;;;5.40;;
5175;SDS011;2607;50.934;6.934;2022-07-24T10:37:10;5.90;;;5.40;;
5175;SDS011;2607;50.934;6.934;2022-07-24T10:42:14;7.83;;;7.10;;
5175;SDS011;2607;50.934;6.934;2022-07-24T10:44:40;6.93;;;6.43;;
5175;SDS011;2607;50.934;6.934;2022-07-24T10:47:07;7.80;;;7.10;;
5175;SDS011;2607;50.934;6.934;2022-07-24T10:52:11;7.83;;;7.20;;
5175;SDS011;2607;50.934;6.934;2022-07-24T10:57:48;5.30;;;4.90;;
5175;SDS011;2607;50.934;6.934;2022-07-24T11:00:37;9.50;;;6.27;;
5175;SDS011;2607;50.934;6.934;2022-07-24T11:03:05;5.60;;;5.20;;
5175;SDS011;2607;50.934;6.934;2022-07-24T11:05:43;5.63;;;5.23;;
5175;SDS011;2607;50.934;6.934;2022-07-24T11:08:27;5.70;;;5.20;;
5175;SDS011;2607;50.934;6.934;2022-07-24T11:10:57;6.53;;;6.00;;
5175;SDS011;2607;50.934;6.934;2022-07-24T11:18:41;9.53;;;6.27;;
5175;SDS011;2607;50.934;6.934;2022-07-24T11:21:09;5.60;;;5.20;;
5175;SDS011;2607;50.934;6.934;2022-07-24T11:23:35;6.23;;;5.83;;
5175;SDS011;2607;50.934;6.934;2022-07-24T11:31:47;58.07;;;44.00;;
5175;SDS011;2607;50.934;6.934;2022-07-24T11:34:18;28.37;;;14.00;;
5175;SDS011;2607;50.934;6.934;2022-07-24T11:36:47;30.97;;;23.07;;
5175;SDS011;2607;50.934;6.934;2022-07-24T11:39:14;67.90;;;50.47;;
5175;SDS011;2607;50.934;6.934;2022-07-24T11:44:10;94.87;;;66.33;;
5175;SDS011;2607;50.934;6.934;2022-07-24T11:46:38;11.80;;;9.50;;
5175;SDS011;2607;50.934;6.934;2022-07-24T11:49:05;6.00;;;5.50;;
5175;SDS011;2607;50.934;6.934;2022-07-24T11:51:40;6.47;;;5.40;;
5175;SDS011;2607;50.934;6.934;2022-07-24T11:54:11;13.57;;;12.30;;
5175;SDS011;2607;50.934;6.934;2022-07-24T11:56:37;58.67;;;43.57;;
5175;SDS011;2607;50.934;6.934;2022-07-24T11:59:03;135.63;;;102.47;;
5175;SDS011;2607;50.934;6.934;2022-07-24T12:01:29;112.53;;;84.07;;
5175;SDS011;2607;50.934;6.934;2022-07-24T12:03:59;87.67;;;68.57;;
5175;SDS011;2607;50.934;6.934;2022-07-24T12:06:25;140.93;;;108.33;;
5175;SDS011;2607;50.934;6.934;2022-07-24T12:08:56;89.73;;;65.70;;
5175;SDS011;2607;50.934;6.934;2022-07-24T12:11:23;113.33;;;86.97;;
5175;SDS011;2607;50.934;6.934;2022-07-24T12:13:49;97.97;;;78.47;;
5175;SDS011;2607;50.934;6.934;2022-07-24T12:16:24;97.77;;;77.50;;
5175;SDS011;2607;50.934;6.934;2022-07-24T12:18:50;91.77;;;71.90;;
5175;SDS011;2607;50.934;6.934;2022-07-24T12:21:16;107.67;;;87.23;;
5175;SDS011;2607;50.934;6.934;2022-07-24T12:23:46;22.47;;;17.90;;
5175;SDS011;2607;50.934;6.934;2022-07-24T12:26:12;57.43;;;47.40;;
5175;SDS011;2607;50.934;6.934;2022-07-24T12:28:38;99.33;;;77.77;;
5175;SDS011;2607;50.934;6.934;2022-07-24T12:31:07;18.83;;;16.90;;
5175;SDS011;2607;50.934;6.934;2022-07-24T12:33:34;59.47;;;50.10;;
5175;SDS011;2607;50.934;6.934;2022-07-24T12:36:06;76.37;;;61.30;;
5175;SDS011;2607;50.934;6.934;2022-07-24T12:41:22;49.53;;;44.00;;
5175;SDS011;2607;50.934;6.934;2022-07-24T12:43:54;50.63;;;42.83;;
5175;SDS011;2607;50.934;6.934;2022-07-24T12:46:31;34.88;;;29.35;;
5175;SDS011;2607;50.934;6.934;2022-07-24T12:49:04;13.93;;;12.37;;
5175;SDS011;2607;50.934;6.934;2022-07-24T12:56:58;15.03;;;12.10;;
5175;SDS011;2607;50.934;6.934;2022-07-24T13:01:56;18.30;;;16.43;;
5175;SDS011;2607;50.934;6.934;2022-07-24T13:04:24;34.87;;;30.07;;
5175;SDS011;2607;50.934;6.934;2022-07-24T13:06:55;34.47;;;27.77;;
5175;SDS011;2607;50.934;6.934;2022-07-24T13:09:25;22.87;;;20.40;;
5175;SDS011;2607;50.934;6.934;2022-07-24T13:11:53;21.63;;;16.30;;
5175;SDS011;2607;50.934;6.934;2022-07-24T13:14:22;84.43;;;65.37;;
5175;SDS011;2607;50.934;6.934;2022-07-24T13:16:50;142.17;;;109.67;;
5175;SDS011;2607;50.934;6.934;2022-07-24T13:19:17;81.40;;;62.07;;
5175;SDS011;2607;50.934;6.934;2022-07-24T13:21:44;115.83;;;90.40;;
5175;SDS011;2607;50.934;6.934;2022-07-24T13:24:11;293.33;;;190.47;;
5175;SDS011;2607;50.934;6.934;2022-07-24T13:26:38;96.20;;;74.73;;
5175;SDS011;2607;50.934;6.934;2022-07-24T13:29:06;33.27;;;25.73;;
5175;SDS011;2607;50.934;6.934;2022-07-24T13:31:32;269.07;;;194.43;;
5175;SDS011;2607;50.934;6.934;2022-07-24T13:33:57;140.00;;;105.67;;
5175;SDS011;2607;50.934;6.934;2022-07-24T13:36:23;146.87;;;112.40;;
5175;SDS011;2607;50.934;6.934;2022-07-24T13:38:48;38.47;;;27.27;;
5175;SDS011;2607;50.934;6.934;2022-07-24T13:41:14;16.83;;;14.27;;
5175;SDS011;2607;50.934;6.934;2022-07-24T13:43:42;103.20;;;80.10;;
5175;SDS011;2607;50.934;6.934;2022-07-24T13:46:07;43.90;;;36.20;;
5175;SDS011;2607;50.934;6.934;2022-07-24T13:48:33;40.33;;;32.47;;
5175;SDS011;2607;50.934;6.934;2022-07-24T13:50:58;54.77;;;43.40;;
5175;SDS011;2607;50.934;6.934;2022-07-24T13:53:24;57.70;;;44.47;;
5175;SDS011;2607;50.934;6.934;2022-07-24T13:55:49;39.23;;;30.97;;
5175;SDS011;2607;50.934;6.934;2022-07-24T13:58:15;24.87;;;20.27;;
5175;SDS011;2607;50.934;6.934;2022-07-24T14:00:41;36.93;;;30.93;;
5175;SDS011;2607;50.934;6.934;2022-07-24T14:03:07;28.27;;;23.58;;
5175;SDS011;2607;50.934;6.934;2022-07-24T14:05:32;34.60;;;27.70;;
5175;SDS011;2607;50.934;6.934;2022-07-24T14:07:58;14.03;;;11.73;;
5175;SDS011;2607;50.934;6.934;2022-07-24T14:10:24;122.87;;;94.77;;
5175;SDS011;2607;50.934;6.934;2022-07-24T14:12:49;61.60;;;47.27;;
5175;SDS011;2607;50.934;6.934;2022-07-24T14:15:15;155.93;;;115.30;;
5175;SDS011;2607;50.934;6.934;2022-07-24T14:17:42;186.53;;;139.37;;
5175;SDS011;2607;50.934;6.934;2022-07-24T14:20:09;38.53;;;27.67;;
5175;SDS011;2607;50.934;6.934;2022-07-24T14:22:35;111.27;;;87.57;;
5175;SDS011;2607;50.934;6.934;2022-07-24T14:25:02;44.50;;;34.57;;
5175;SDS011;2607;50.934;6.934;2022-07-24T14:27:29;47.37;;;39.30;;
5175;SDS011;2607;50.934;6.934;2022-07-24T14:29:55;72.20;;;55.77;;
5175;SDS011;2607;50.934;6.934;2022-07-24T14:32:20;63.13;;;49.37;;
5175;SDS011;2607;50.934;6.934;2022-07-24T14:34:46;84.97;;;64.70;;
5175;SDS011;2607;50.934;6.934;2022-07-24T14:37:12;62.40;;;49.80;;
5175;SDS011;2607;50.934;6.934;2022-07-24T14:39:37;41.70;;;33.87;;
5175;SDS011;2607;50.934;6.934;2022-07-24T14:42:03;57.83;;;46.50;;
5175;SDS011;2607;50.934;6.934;2022-07-24T14:44:29;40.00;;;31.07;;
5175;SDS011;2607;50.934;6.934;2022-07-24T14:46:55;17.50;;;14.00;;
5175;SDS011;2607;50.934;6.934;2022-07-24T14:49:21;22.63;;;18.83;;
5175;SDS011;2607;50.934;6.934;2022-07-24T14:51:47;28.30;;;23.47;;
5175;SDS011;2607;50.934;6.934;2022-07-24T14:54:12;25.87;;;22.40;;
5175;SDS011;2607;50.934;6.934;2022-07-24T14:56:39;20.90;;;18.70;;
5175;SDS011;2607;50.934;6.934;2022-07-24T14:59:05;28.17;;;21.80;;
5175;SDS011;2607;50.934;6.934;2022-07-24T15:01:31;18.30;;;13.03;;
5175;SDS011;2607;50.934;6.934;2022-07-24T15:03:57;13.40;;;9.67;;
5175;SDS011;2607;50.934;6.934;2022-07-24T15:06:23;16.20;;;14.37;;
5175;SDS011;2607;50.934;6.934;2022-07-24T15:08:48;17.97;;;15.77;;
5175;SDS011;2607;50.934;6.934;2022-07-24T15:11:14;23.30;;;19.90;;
5175;SDS011;2607;50.934;6.934;2022-07-24T15:13:40;15.13;;;13.53;;
5175;SDS011;2607;50.934;6.934;2022-07-24T15:16:06;11.37;;;10.20;;
5175;SDS011;2607;50.934;6.934;2022-07-24T15:18:33;22.93;;;19.33;;
5175;SDS011;2607;50.934;6.934;2022-07-24T15:20:59;13.87;;;12.40;;
5175;SDS011;2607;50.934;6.934;2022-07-24T15:23:25;9.00;;;8.20;;
5175;SDS011;2607;50.934;6.934;2022-07-24T15:25:51;16.53;;;13.30;;
5175;SDS011;2607;50.934;6.934;2022-07-24T15:28:17;11.73;;;9.57;;
5175;SDS011;2607;50.934;6.934;2022-07-24T15:30:42;59.23;;;45.60;;
5175;SDS011;2607;50.934;6.934;2022-07-24T15:33:08;35.97;;;25.23;;
5175;SDS011;2607;50.934;6.934;2022-07-24T15:35:34;98.27;;;76.37;;
5175;SDS011;2607;50.934;6.934;2022-07-24T15:37:59;88.17;;;67.73;;
5175;SDS011;2607;50.934;6.934;2022-07-24T15:40:25;135.07;;;103.33;;
5175;SDS011;2607;50.934;6.934;2022-07-24T15:42:52;101.70;;;80.17;;